Time;durP1;ratioP1;P1;durP2;ratioP2;P2;SDS_P1;SDS_P2;PMS_P1;PMS_P2;Temp;Humidity;BMP_temperature;BMP_pressure;BME280_temperature;BME280_humidity;BME280_pressure;Samples;Min_cycle;Max_cycle;Signal;HPM_P1;HPM_P2
2022/08/08 00:01:47;;;;;;;6.50;4.13;;;;;;;;;;5038531;28;20041;-63
2022/08/08 00:04:36;;;;;;;5.70;3.83;;;;;;;;;;5047000;28;20067;-63
2022/08/08 00:07:15;;;;;;;5.63;4.22;;;;;;;;;;5009371;28;20052;-63
2022/08/08 00:10:00;;;;;;;4.78;3.75;;;;;;;;;;5028405;28;20041;-63
2022/08/08 00:12:49;;;;;;;4.53;3.92;;;;;;;;;;5029832;28;20037;-63
2022/08/08 00:15:16;;;;;;;4.32;3.75;;;;;;;;;;5024942;28;20116;-63
2022/08/08 00:17:45;;;;;;;4.18;3.78;;;;;;;;;;5032036;28;20041;-64
2022/08/08 00:20:13;;;;;;;4.72;3.90;;;;;;;;;;5045265;28;20032;-63
2022/08/08 00:22:45;;;;;;;4.10;3.67;;;;;;;;;;5020790;28;20049;-63
2022/08/08 00:25:13;;;;;;;6.38;3.88;;;;;;;;;;5028919;28;20450;-63
2022/08/08 00:27:40;;;;;;;4.35;3.85;;;;;;;;;;5031555;28;20116;-63
2022/08/08 00:30:07;;;;;;;4.72;4.28;;;;;;;;;;5032205;28;20037;-63
2022/08/08 00:32:33;;;;;;;4.88;4.35;;;;;;;;;;5031315;28;20063;-63
2022/08/08 00:35:13;;;;;;;4.60;4.18;;;;;;;;;;5016275;28;20036;-63
2022/08/08 00:37:46;;;;;;;7.03;4.82;;;;;;;;;;5032134;28;20160;-63
2022/08/08 00:40:24;;;;;;;6.07;4.18;;;;;;;;;;5030767;28;20404;-63
2022/08/08 00:42:50;;;;;;;6.20;5.35;;;;;;;;;;5032346;28;20046;-63
2022/08/08 00:45:19;;;;;;;7.40;4.53;;;;;;;;;;5030670;28;20047;-63
2022/08/08 00:48:10;;;;;;;5.32;4.65;;;;;;;;;;5031930;28;20037;-63
2022/08/08 00:50:45;;;;;;;5.40;4.47;;;;;;;;;;5035237;28;20037;-63
2022/08/08 00:53:26;;;;;;;4.82;4.32;;;;;;;;;;5038829;28;20041;-63
2022/08/08 00:56:08;;;;;;;6.18;4.85;;;;;;;;;;5028718;28;20407;-63
2022/08/08 00:58:34;;;;;;;5.68;5.00;;;;;;;;;;5031417;28;20037;-63
2022/08/08 01:01:13;;;;;;;6.15;4.60;;;;;;;;;;5043779;28;20036;-63
2022/08/08 01:03:51;;;;;;;5.47;4.30;;;;;;;;;;5028221;28;20038;-63
2022/08/08 01:06:23;;;;;;;5.20;3.92;;;;;;;;;;5030731;28;20091;-63
2022/08/08 01:09:08;;;;;;;5.88;3.90;;;;;;;;;;5029764;28;20142;-63
2022/08/08 01:11:37;;;;;;;6.50;4.45;;;;;;;;;;5019649;28;20044;-63
2022/08/08 01:14:22;;;;;;;5.93;4.28;;;;;;;;;;5030531;28;20456;-63
2022/08/08 01:16:54;;;;;;;5.22;3.97;;;;;;;;;;5025367;28;20132;-63
2022/08/08 01:19:26;;;;;;;5.55;4.35;;;;;;;;;;5034194;28;20047;-63
2022/08/08 01:22:00;;;;;;;6.03;4.45;;;;;;;;;;5045198;28;20036;-63
2022/08/08 01:24:32;;;;;;;5.13;4.13;;;;;;;;;;5031154;28;20124;-63
2022/08/08 01:27:17;;;;;;;5.05;3.95;;;;;;;;;;5030953;28;20110;-62
2022/08/08 01:30:05;;;;;;;4.53;3.60;;;;;;;;;;5042402;28;20441;-63
2022/08/08 01:33:01;;;;;;;5.75;3.90;;;;;;;;;;5039563;28;20037;-63
2022/08/08 01:35:45;;;;;;;3.33;2.97;;;;;;;;;;4993137;28;20061;-63
2022/08/08 01:38:26;;;;;;;5.65;3.42;;;;;;;;;;5025491;28;20038;-63
2022/08/08 01:40:52;;;;;;;;;;;;;;;;;;5031199;28;20518;-63
2022/08/08 01:43:29;;;;;;;4.95;3.47;;;;;;;;;;5028687;28;19917;-63
2022/08/08 01:46:05;;;;;;;5.28;4.10;;;;;;;;;;5025660;28;20102;-63
2022/08/08 01:48:49;;;;;;;4.13;3.72;;;;;;;;;;5020651;28;20076;-63
2022/08/08 01:51:21;;;;;;;4.47;3.20;;;;;;;;;;5028904;28;20442;-63
2022/08/08 01:54:04;;;;;;;3.97;3.15;;;;;;;;;;5032485;28;20055;-63
2022/08/08 01:56:39;;;;;;;5.07;4.00;;;;;;;;;;5035253;28;20053;-63
2022/08/08 01:59:19;;;;;;;6.38;4.13;;;;;;;;;;5035225;28;20044;-63
2022/08/08 02:01:57;;;;;;;4.75;4.05;;;;;;;;;;5022820;28;20124;-63
2022/08/08 02:04:36;;;;;;;5.13;4.30;;;;;;;;;;5034158;28;20041;-63
2022/08/08 02:07:05;;;;;;;4.97;4.28;;;;;;;;;;5031862;28;20037;-63
2022/08/08 02:09:31;;;;;;;6.72;4.22;;;;;;;;;;5033845;28;20041;-63
2022/08/08 02:11:57;;;;;;;5.85;4.18;;;;;;;;;;5034855;28;20030;-63
2022/08/08 02:14:26;;;;;;;5.25;4.57;;;;;;;;;;5033344;28;20051;-63
2022/08/08 02:17:02;;;;;;;5.32;4.07;;;;;;;;;;5040717;28;20445;-63
2022/08/08 02:19:33;;;;;;;4.82;4.32;;;;;;;;;;5017357;28;20499;-63
2022/08/08 02:24:52;;;;;;;6.90;4.43;;;;;;;;;;5032722;28;19917;-63
2022/08/08 02:27:20;;;;;;;5.43;4.18;;;;;;;;;;5041992;28;20045;-63
2022/08/08 02:30:07;;;;;;;5.00;4.50;;;;;;;;;;5048064;28;20124;-63
2022/08/08 02:32:33;;;;;;;6.75;4.68;;;;;;;;;;5048041;28;20037;-63
2022/08/08 02:35:19;;;;;;;5.70;4.35;;;;;;;;;;5040532;28;20044;-63
2022/08/08 02:37:58;;;;;;;4.80;4.30;;;;;;;;;;4991140;28;20056;-63
2022/08/08 02:40:42;;;;;;;4.80;4.30;;;;;;;;;;5033466;28;20042;-63
2022/08/08 02:43:27;;;;;;;5.28;4.15;;;;;;;;;;5016041;28;20033;-63
2022/08/08 02:46:12;;;;;;;8.07;5.18;;;;;;;;;;5012980;28;20041;-63
2022/08/08 02:48:53;;;;;;;6.00;4.45;;;;;;;;;;5027224;28;20065;-63
2022/08/08 02:51:22;;;;;;;5.07;4.40;;;;;;;;;;5033763;28;20033;-62
2022/08/08 02:54:03;;;;;;;5.45;4.28;;;;;;;;;;5032647;28;20035;-63
2022/08/08 02:56:48;;;;;;;4.25;3.78;;;;;;;;;;5034000;28;20487;-63
2022/08/08 02:59:41;;;;;;;5.03;4.38;;;;;;;;;;5033031;28;20036;-63
2022/08/08 03:02:10;;;;;;;4.10;3.70;;;;;;;;;;5032628;28;20045;-63
2022/08/08 03:04:51;;;;;;;4.80;3.58;;;;;;;;;;5017244;28;20068;-63
2022/08/08 03:07:29;;;;;;;6.68;4.72;;;;;;;;;;5034371;28;20434;-63
2022/08/08 03:10:07;;;;;;;5.85;4.00;;;;;;;;;;5062904;22;20043;-62
2022/08/08 03:12:54;;;;;;;6.13;4.40;;;;;;;;;;5051911;28;20128;-62
2022/08/08 03:15:25;;;;;;;4.43;3.72;;;;;;;;;;5051988;28;20033;-62
2022/08/08 03:17:55;;;;;;;4.80;3.80;;;;;;;;;;5050429;28;20044;-62
2022/08/08 03:20:21;;;;;;;4.78;4.28;;;;;;;;;;5035409;28;20044;-62
2022/08/08 03:22:49;;;;;;;4.80;4.18;;;;;;;;;;5033925;28;20051;-62
2022/08/08 03:25:16;;;;;;;4.18;3.58;;;;;;;;;;5051235;28;20114;-62
2022/08/08 03:27:50;;;;;;;4.93;4.20;;;;;;;;;;5052510;28;20171;-62
2022/08/08 03:30:19;;;;;;;4.45;3.90;;;;;;;;;;5051839;28;20047;-62
2022/08/08 03:35:30;;;;;;;5.60;3.97;;;;;;;;;;5049532;28;20041;-62
2022/08/08 03:37:59;;;;;;;4.20;3.80;;;;;;;;;;5047180;28;20043;-62
2022/08/08 03:40:25;;;;;;;5.03;4.25;;;;;;;;;;5032065;28;20071;-62
2022/08/08 03:42:51;;;;;;;6.90;4.53;;;;;;;;;;5052287;28;20422;-62
2022/08/08 03:45:17;;;;;;;5.78;4.57;;;;;;;;;;5049400;28;20037;-62
2022/08/08 03:47:44;;;;;;;5.38;4.60;;;;;;;;;;5033373;28;20045;-62
2022/08/08 03:50:17;;;;;;;8.40;6.15;;;;;;;;;;5052401;28;20064;-62
2022/08/08 03:52:43;;;;;;;8.05;6.68;;;;;;;;;;5031297;28;20033;-62
2022/08/08 03:55:11;;;;;;;7.13;5.78;;;;;;;;;;5050918;28;20033;-62
2022/08/08 03:57:37;;;;;;;7.85;5.93;;;;;;;;;;5051288;28;20151;-62
2022/08/08 04:00:11;;;;;;;8.45;5.93;;;;;;;;;;5051993;28;20069;-62
2022/08/08 04:02:37;;;;;;;5.47;4.95;;;;;;;;;;5047928;28;20041;-62
2022/08/08 04:05:06;;;;;;;6.03;5.28;;;;;;;;;;5048839;28;20037;-62
2022/08/08 04:07:36;;;;;;;7.47;6.43;;;;;;;;;;5052033;28;20479;-62
2022/08/08 04:10:02;;;;;;;9.02;7.22;;;;;;;;;;5051742;28;20087;-62
2022/08/08 04:12:28;;;;;;;9.82;6.80;;;;;;;;;;5051659;28;20033;-62
2022/08/08 04:14:54;;;;;;;8.05;6.70;;;;;;;;;;5050208;28;20513;-62
2022/08/08 04:17:20;;;;;;;7.95;5.95;;;;;;;;;;5041424;28;20037;-62
2022/08/08 04:19:46;;;;;;;5.97;5.38;;;;;;;;;;5030569;28;20045;-62
2022/08/08 04:22:12;;;;;;;8.02;5.85;;;;;;;;;;5052338;28;20040;-62
2022/08/08 04:24:38;;;;;;;6.93;6.22;;;;;;;;;;5050476;28;20394;-62
2022/08/08 04:27:05;;;;;;;7.07;5.60;;;;;;;;;;5051494;28;20120;-62
2022/08/08 04:29:32;;;;;;;7.88;6.35;;;;;;;;;;5050260;28;20088;-62
2022/08/08 04:31:58;;;;;;;8.23;5.80;;;;;;;;;;5051403;28;20523;-62
2022/08/08 04:34:24;;;;;;;6.80;5.03;;;;;;;;;;5048580;28;20116;-62
2022/08/08 04:36:50;;;;;;;4.45;3.92;;;;;;;;;;5052652;28;20041;-62
2022/08/08 04:39:16;;;;;;;4.40;4.00;;;;;;;;;;5051084;28;20040;-62
2022/08/08 04:41:42;;;;;;;4.20;3.80;;;;;;;;;;5049289;28;20159;-62
2022/08/08 04:44:08;;;;;;;4.35;3.95;;;;;;;;;;5050025;28;20478;-62
2022/08/08 04:46:34;;;;;;;6.55;5.47;;;;;;;;;;5033478;28;20045;-62
2022/08/08 04:49:00;;;;;;;7.03;5.03;;;;;;;;;;5049444;28;20049;-62
2022/08/08 04:51:26;;;;;;;5.97;4.32;;;;;;;;;;5052408;28;20037;-62
2022/08/08 04:53:52;;;;;;;3.90;3.50;;;;;;;;;;5047163;28;20482;-62
2022/08/08 04:56:18;;;;;;;4.85;3.72;;;;;;;;;;5049403;28;20697;-62
2022/08/08 04:58:44;;;;;;;3.83;3.30;;;;;;;;;;5050294;28;20441;-62
2022/08/08 05:01:10;;;;;;;5.47;3.78;;;;;;;;;;5044138;28;20051;-62
2022/08/08 05:03:36;;;;;;;5.55;4.15;;;;;;;;;;5043271;28;20402;-62
2022/08/08 05:06:02;;;;;;;7.65;4.03;;;;;;;;;;5047731;28;20128;-62
2022/08/08 05:08:29;;;;;;;4.95;4.45;;;;;;;;;;5046820;28;20447;-62
2022/08/08 05:10:55;;;;;;;5.40;4.68;;;;;;;;;;5038658;28;20430;-62
2022/08/08 05:13:21;;;;;;;8.07;4.57;;;;;;;;;;5046192;28;20041;-62
2022/08/08 05:15:47;;;;;;;5.80;4.20;;;;;;;;;;5051218;28;20116;-62
2022/08/08 05:18:13;;;;;;;5.60;4.43;;;;;;;;;;5045882;28;20075;-62
2022/08/08 05:20:39;;;;;;;4.05;3.55;;;;;;;;;;5051049;28;20040;-62
2022/08/08 05:23:05;;;;;;;4.03;3.63;;;;;;;;;;5049084;28;20418;-62
2022/08/08 05:25:31;;;;;;;4.25;3.85;;;;;;;;;;5033255;28;20491;-62
2022/08/08 05:27:57;;;;;;;6.07;4.60;;;;;;;;;;5045849;28;20043;-62
2022/08/08 05:30:23;;;;;;;4.60;4.10;;;;;;;;;;5042584;28;20033;-62
2022/08/08 05:32:49;;;;;;;7.68;4.97;;;;;;;;;;5049140;28;20398;-62
2022/08/08 05:35:17;;;;;;;5.90;4.60;;;;;;;;;;5051081;28;20040;-62
2022/08/08 05:37:47;;;;;;;7.07;4.90;;;;;;;;;;5045512;28;20095;-62
2022/08/08 05:40:13;;;;;;;5.40;4.50;;;;;;;;;;5044386;28;20117;-62
2022/08/08 05:42:41;;;;;;;7.70;5.28;;;;;;;;;;5050441;28;20091;-62
2022/08/08 05:45:07;;;;;;;11.32;4.95;;;;;;;;;;5049141;28;20037;-62
2022/08/08 05:47:34;;;;;;;9.43;4.35;;;;;;;;;;5049973;28;20516;-62
2022/08/08 05:50:04;;;;;;;5.03;4.53;;;;;;;;;;5041221;28;20067;-62
2022/08/08 05:52:30;;;;;;;10.27;5.32;;;;;;;;;;5049022;28;20045;-62
2022/08/08 05:54:56;;;;;;;8.20;4.53;;;;;;;;;;5048000;28;20029;-62
2022/08/08 05:57:27;;;;;;;7.43;5.93;;;;;;;;;;5048788;28;20090;-62
2022/08/08 05:59:57;;;;;;;11.05;5.50;;;;;;;;;;5050604;28;20048;-62
2022/08/08 06:05:17;;;;;;;11.25;5.70;;;;;;;;;;5049103;28;20037;-62
2022/08/08 06:07:45;;;;;;;8.55;5.30;;;;;;;;;;5049691;28;20033;-62
2022/08/08 06:10:11;;;;;;;9.35;5.65;;;;;;;;;;5042969;28;20797;-62
2022/08/08 06:12:38;;;;;;;8.60;5.38;;;;;;;;;;5043901;28;20140;-62
2022/08/08 06:15:05;;;;;;;9.63;5.13;;;;;;;;;;5036936;28;20051;-62
2022/08/08 06:17:35;;;;;;;8.55;5.00;;;;;;;;;;5040157;28;20083;-63
2022/08/08 06:20:03;;;;;;;8.48;4.78;;;;;;;;;;5045374;28;20538;-62
2022/08/08 06:22:29;;;;;;;10.60;5.00;;;;;;;;;;5047816;28;20044;-62
2022/08/08 06:24:55;;;;;;;8.93;5.03;;;;;;;;;;5031892;28;20044;-62
2022/08/08 06:27:29;;;;;;;10.13;5.15;;;;;;;;;;5049770;28;20067;-62
2022/08/08 06:29:59;;;;;;;7.20;4.63;;;;;;;;;;5044447;28;20038;-62
2022/08/08 06:32:29;;;;;;;8.07;5.05;;;;;;;;;;5048189;28;20064;-63
2022/08/08 06:34:59;;;;;;;10.25;5.43;;;;;;;;;;5043122;28;20453;-62
2022/08/08 06:37:27;;;;;;;9.48;4.85;;;;;;;;;;5045687;28;20119;-62
2022/08/08 06:39:56;;;;;;;13.93;4.53;;;;;;;;;;5047458;28;20044;-62
2022/08/08 06:42:23;;;;;;;14.65;5.35;;;;;;;;;;5049717;28;20045;-62
2022/08/08 06:44:50;;;;;;;7.93;4.82;;;;;;;;;;5049848;28;20033;-62
2022/08/08 06:47:16;;;;;;;11.70;5.05;;;;;;;;;;5042438;28;20068;-62
2022/08/08 06:49:42;;;;;;;9.13;4.32;;;;;;;;;;5045295;28;20486;-62
2022/08/08 06:52:08;;;;;;;7.93;4.30;;;;;;;;;;5049557;28;20036;-62
2022/08/08 06:54:34;;;;;;;8.35;3.40;;;;;;;;;;5047870;28;20125;-62
2022/08/08 06:57:01;;;;;;;6.95;2.90;;;;;;;;;;5052675;28;20048;-62
2022/08/08 06:59:27;;;;;;;8.15;3.95;;;;;;;;;;5049328;28;20049;-63
2022/08/08 07:02:00;;;;;;;8.13;3.67;;;;;;;;;;5050144;28;20112;-62
2022/08/08 07:04:37;;;;;;;5.82;3.30;;;;;;;;;;5050514;28;20040;-62
2022/08/08 07:07:03;;;;;;;4.22;2.90;;;;;;;;;;5047905;28;20041;-62
2022/08/08 07:09:37;;;;;;;7.22;3.20;;;;;;;;;;5048624;28;20041;-62
2022/08/08 07:12:06;;;;;;;7.72;3.10;;;;;;;;;;5028526;28;20048;-62
2022/08/08 07:14:53;;;;;;;6.28;3.00;;;;;;;;;;5049527;28;20120;-62
2022/08/08 07:17:22;;;;;;;7.05;3.50;;;;;;;;;;5044377;28;20041;-62
2022/08/08 07:20:01;;;;;;;6.75;2.95;;;;;;;;;;5038794;28;20124;-62
2022/08/08 07:22:34;;;;;;;9.98;3.38;;;;;;;;;;5049004;28;20044;-62
2022/08/08 07:25:03;;;;;;;12.20;3.33;;;;;;;;;;5033283;28;20128;-62
2022/08/08 07:27:35;;;;;;;7.93;3.35;;;;;;;;;;5047750;28;20404;-62
2022/08/08 07:30:01;;;;;;;9.02;3.38;;;;;;;;;;5043812;28;20028;-62
2022/08/08 07:32:27;;;;;;;5.70;2.63;;;;;;;;;;5053534;28;20033;-62
2022/08/08 07:34:54;;;;;;;7.38;3.38;;;;;;;;;;5049330;28;20064;-62
2022/08/08 07:37:22;;;;;;;6.00;2.80;;;;;;;;;;5045814;28;20041;-63
2022/08/08 07:39:48;;;;;;;8.15;2.80;;;;;;;;;;5048569;28;20040;-62
2022/08/08 07:42:16;;;;;;;4.53;2.15;;;;;;;;;;5049142;28;20037;-62
2022/08/08 07:44:42;;;;;;;6.28;2.35;;;;;;;;;;5026572;28;20079;-62
2022/08/08 07:47:09;;;;;;;7.18;2.65;;;;;;;;;;5050744;28;20053;-63
2022/08/08 07:49:40;;;;;;;5.07;2.90;;;;;;;;;;5050389;28;20056;-63
2022/08/08 07:52:07;;;;;;;6.97;2.13;;;;;;;;;;5050794;28;20514;-62
2022/08/08 07:54:33;;;;;;;6.07;2.42;;;;;;;;;;5047946;28;20085;-62
2022/08/08 07:57:05;;;;;;;4.80;2.33;;;;;;;;;;5032193;28;20380;-62
2022/08/08 07:59:34;;;;;;;5.90;2.33;;;;;;;;;;5042654;28;22120;-63
2022/08/08 08:02:05;;;;;;;5.35;2.30;;;;;;;;;;5047288;28;20040;-63
2022/08/08 08:04:32;;;;;;;3.80;1.58;;;;;;;;;;5046835;28;20457;-62
2022/08/08 08:07:02;;;;;;;4.13;1.55;;;;;;;;;;5048773;28;20124;-62
2022/08/08 08:09:30;;;;;;;4.40;2.00;;;;;;;;;;5023678;28;20041;-63
2022/08/08 08:11:59;;;;;;;4.70;1.80;;;;;;;;;;5031788;28;20041;-62
2022/08/08 08:14:48;;;;;;;7.63;1.90;;;;;;;;;;5045999;28;20044;-62
2022/08/08 08:17:17;;;;;;;4.85;2.13;;;;;;;;;;5032989;28;20045;-63
2022/08/08 08:19:44;;;;;;;5.18;1.73;;;;;;;;;;5049668;28;20032;-63
2022/08/08 08:22:11;;;;;;;6.63;2.03;;;;;;;;;;5050346;28;20037;-63
2022/08/08 08:24:37;;;;;;;6.38;2.45;;;;;;;;;;5046004;28;20032;-62
2022/08/08 08:27:03;;;;;;;7.35;2.08;;;;;;;;;;5040964;28;20561;-63
2022/08/08 08:29:29;;;;;;;6.97;1.90;;;;;;;;;;5046168;28;20124;-63
2022/08/08 08:31:55;;;;;;;5.05;1.75;;;;;;;;;;5046912;28;20060;-62
2022/08/08 08:34:21;;;;;;;4.40;2.28;;;;;;;;;;5043831;28;20478;-63
2022/08/08 08:36:47;;;;;;;3.10;1.60;;;;;;;;;;5041130;28;20119;-63
2022/08/08 08:39:13;;;;;;;5.25;1.80;;;;;;;;;;5032749;28;20486;-63
2022/08/08 08:41:40;;;;;;;6.57;2.42;;;;;;;;;;5045724;28;20098;-63
2022/08/08 08:44:06;;;;;;;6.57;2.20;;;;;;;;;;5043655;28;20044;-62
2022/08/08 08:46:34;;;;;;;5.22;1.88;;;;;;;;;;5051358;28;20040;-62
2022/08/08 08:49:00;;;;;;;5.00;1.63;;;;;;;;;;5022651;28;20128;-62
2022/08/08 08:51:27;;;;;;;5.00;2.00;;;;;;;;;;5045498;28;20440;-62
2022/08/08 08:53:55;;;;;;;4.05;1.95;;;;;;;;;;5052210;28;20391;-62
2022/08/08 08:56:22;;;;;;;5.70;2.08;;;;;;;;;;5051180;28;20044;-62
2022/08/08 08:58:48;;;;;;;4.35;1.95;;;;;;;;;;5051350;28;20033;-63
2022/08/08 09:01:15;;;;;;;4.68;1.60;;;;;;;;;;5051884;28;20050;-63
2022/08/08 09:03:48;;;;;;;5.18;1.90;;;;;;;;;;5051403;28;20390;-63
2022/08/08 09:06:19;;;;;;;4.65;1.70;;;;;;;;;;5052195;28;20136;-63
2022/08/08 09:08:46;;;;;;;4.78;1.63;;;;;;;;;;5065797;22;20021;-64
2022/08/08 09:11:13;;;;;;;4.28;1.73;;;;;;;;;;5050348;28;20040;-64
2022/08/08 09:13:39;;;;;;;3.97;1.50;;;;;;;;;;5051577;28;20037;-64
2022/08/08 09:16:05;;;;;;;5.45;1.60;;;;;;;;;;5033257;28;20048;-64
2022/08/08 09:18:31;;;;;;;3.55;1.55;;;;;;;;;;5031276;28;20564;-64
2022/08/08 09:21:01;;;;;;;3.83;1.50;;;;;;;;;;5036753;28;20041;-64
2022/08/08 09:23:28;;;;;;;5.88;1.95;;;;;;;;;;5013846;28;20131;-64
2022/08/08 09:26:07;;;;;;;17.27;4.55;;;;;;;;;;5020971;28;20069;-64
2022/08/08 09:28:37;;;;;;;26.90;4.18;;;;;;;;;;5033762;28;20132;-64
2022/08/08 09:31:05;;;;;;;12.50;2.60;;;;;;;;;;5030187;28;20427;-64
2022/08/08 09:33:32;;;;;;;12.68;3.05;;;;;;;;;;5027646;28;20069;-64
2022/08/08 09:36:01;;;;;;;4.88;1.60;;;;;;;;;;5029676;28;20105;-64
2022/08/08 09:38:27;;;;;;;4.63;1.70;;;;;;;;;;5035794;28;20144;-64
2022/08/08 09:40:56;;;;;;;4.50;1.40;;;;;;;;;;5037128;28;20565;-64
2022/08/08 09:43:29;;;;;;;3.50;1.83;;;;;;;;;;5051726;28;20049;-64
2022/08/08 09:46:01;;;;;;;5.70;1.80;;;;;;;;;;5047398;28;20132;-64
2022/08/08 09:48:32;;;;;;;5.35;1.70;;;;;;;;;;5042810;28;20045;-64
2022/08/08 09:50:58;;;;;;;4.70;1.58;;;;;;;;;;5033717;28;20038;-64
2022/08/08 09:53:47;;;;;;;4.88;1.52;;;;;;;;;;5012168;28;20073;-64
2022/08/08 09:56:14;;;;;;;5.93;2.15;;;;;;;;;;5038592;28;20036;-64
2022/08/08 09:58:41;;;;;;;3.38;1.73;;;;;;;;;;5043015;28;20098;-64
2022/08/08 10:01:08;;;;;;;4.63;2.03;;;;;;;;;;5051359;28;20068;-64
2022/08/08 10:03:35;;;;;;;4.50;1.27;;;;;;;;;;5051639;28;20053;-64
2022/08/08 10:06:12;;;;;;;3.38;1.40;;;;;;;;;;5042740;28;20034;-62
2022/08/08 10:08:43;;;;;;;4.15;1.35;;;;;;;;;;5030430;28;20086;-62
2022/08/08 10:11:09;;;;;;;4.32;1.60;;;;;;;;;;5039167;28;20034;-62
2022/08/08 10:13:35;;;;;;;4.28;1.65;;;;;;;;;;5011474;28;20038;-62
2022/08/08 10:16:01;;;;;;;4.53;1.55;;;;;;;;;;5031551;28;20170;-62
2022/08/08 10:18:35;;;;;;;3.65;1.30;;;;;;;;;;5042918;28;20045;-62
2022/08/08 10:21:06;;;;;;;3.17;1.27;;;;;;;;;;5039436;28;20496;-62
2022/08/08 10:23:41;;;;;;;4.25;1.60;;;;;;;;;;5042954;28;20041;-62
2022/08/08 10:26:14;;;;;;;1.63;1.10;;;;;;;;;;5036061;28;20041;-62
2022/08/08 10:28:47;;;;;;;3.08;1.20;;;;;;;;;;5035985;28;20037;-62
2022/08/08 10:33:58;;;;;;;2.72;1.30;;;;;;;;;;5054944;28;20502;-63
2022/08/08 10:36:25;;;;;;;3.70;1.02;;;;;;;;;;5055272;28;20098;-63
2022/08/08 10:38:53;;;;;;;2.83;1.35;;;;;;;;;;5040265;28;20038;-63
2022/08/08 10:41:25;;;;;;;4.60;1.30;;;;;;;;;;5044220;28;20037;-63
2022/08/08 10:43:51;;;;;;;2.90;1.13;;;;;;;;;;5041481;28;20042;-63
2022/08/08 10:46:27;;;;;;;2.50;1.02;;;;;;;;;;5052228;28;20033;-63
2022/08/08 10:48:53;;;;;;;2.28;1.17;;;;;;;;;;5053703;28;20041;-63
2022/08/08 10:51:21;;;;;;;2.90;1.23;;;;;;;;;;5037564;28;20037;-63
2022/08/08 10:53:48;;;;;;;3.03;1.23;;;;;;;;;;5046556;28;20065;-63
2022/08/08 10:56:14;;;;;;;3.58;1.00;;;;;;;;;;5048043;28;20498;-63
2022/08/08 10:58:40;;;;;;;4.57;1.13;;;;;;;;;;5044797;28;20037;-63
2022/08/08 11:01:09;;;;;;;6.10;1.40;;;;;;;;;;5045645;28;20041;-63
2022/08/08 11:03:45;;;;;;;5.43;1.38;;;;;;;;;;5054383;28;20090;-63
2022/08/08 11:06:11;;;;;;;2.40;1.10;;;;;;;;;;5044221;28;20128;-63
2022/08/08 11:08:39;;;;;;;3.42;1.23;;;;;;;;;;5018678;28;20047;-64
2022/08/08 11:11:11;;;;;;;3.65;1.00;;;;;;;;;;5033243;28;20056;-63
2022/08/08 11:13:39;;;;;;;3.08;0.90;;;;;;;;;;5041056;28;20037;-63
2022/08/08 11:16:05;;;;;;;2.80;1.00;;;;;;;;;;5049911;28;20094;-63
2022/08/08 11:18:33;;;;;;;2.00;1.00;;;;;;;;;;5054167;28;20049;-63
2022/08/08 11:21:00;;;;;;;2.90;1.25;;;;;;;;;;5039818;28;20069;-63
2022/08/08 11:23:30;;;;;;;4.07;1.33;;;;;;;;;;5050863;28;20042;-63
2022/08/08 11:25:57;;;;;;;2.88;1.00;;;;;;;;;;5045482;28;20380;-63
2022/08/08 11:28:24;;;;;;;2.67;1.08;;;;;;;;;;5053717;28;20071;-63
2022/08/08 11:30:50;;;;;;;2.25;0.85;;;;;;;;;;5053888;28;20052;-63
2022/08/08 11:33:18;;;;;;;0.85;0.65;;;;;;;;;;5047337;28;20029;-63
2022/08/08 11:35:44;;;;;;;2.15;0.80;;;;;;;;;;5045554;28;20571;-63
2022/08/08 11:38:13;;;;;;;2.20;0.85;;;;;;;;;;5049137;28;20040;-63
2022/08/08 11:40:39;;;;;;;3.15;1.00;;;;;;;;;;5025393;28;20052;-63
2022/08/08 11:43:06;;;;;;;14.60;1.58;;;;;;;;;;5033691;28;20048;-63
2022/08/08 11:45:32;;;;;;;3.08;1.05;;;;;;;;;;5033350;28;20504;-63
2022/08/08 11:47:59;;;;;;;3.05;1.00;;;;;;;;;;5038274;28;20041;-63
2022/08/08 11:50:25;;;;;;;1.40;0.90;;;;;;;;;;5045127;28;20033;-63
2022/08/08 11:52:52;;;;;;;2.50;0.80;;;;;;;;;;5042073;28;20041;-63
2022/08/08 11:55:19;;;;;;;2.05;0.75;;;;;;;;;;5050509;28;20033;-63
2022/08/08 11:57:45;;;;;;;2.53;1.10;;;;;;;;;;5035636;28;20045;-64
2022/08/08 12:00:16;;;;;;;1.63;0.80;;;;;;;;;;5038025;28;20589;-63
2022/08/08 12:02:46;;;;;;;2.40;0.95;;;;;;;;;;5039443;28;20052;-63
2022/08/08 12:05:12;;;;;;;3.25;1.10;;;;;;;;;;5035796;28;20467;-63
2022/08/08 12:07:45;;;;;;;2.95;1.00;;;;;;;;;;5040876;28;20120;-63
2022/08/08 12:10:15;;;;;;;3.13;1.02;;;;;;;;;;5032258;28;20073;-63
2022/08/08 12:12:45;;;;;;;1.95;0.85;;;;;;;;;;5033227;28;20045;-63
2022/08/08 12:15:11;;;;;;;3.40;1.30;;;;;;;;;;5032379;28;20041;-63
2022/08/08 12:17:39;;;;;;;2.15;0.98;;;;;;;;;;5044916;28;20033;-63
2022/08/08 12:20:06;;;;;;;1.48;0.80;;;;;;;;;;5042823;28;20541;-63
2022/08/08 12:22:32;;;;;;;2.35;0.90;;;;;;;;;;5044206;28;20045;-63
2022/08/08 12:24:59;;;;;;;3.95;0.98;;;;;;;;;;5052983;28;20090;-63
2022/08/08 12:27:35;;;;;;;3.38;1.10;;;;;;;;;;5052523;28;20422;-63
2022/08/08 12:30:01;;;;;;;3.08;1.02;;;;;;;;;;5017395;28;20041;-63
2022/08/08 12:32:27;;;;;;;1.88;0.93;;;;;;;;;;5038522;28;20484;-63
2022/08/08 12:34:56;;;;;;;2.72;0.90;;;;;;;;;;5022553;28;20041;-63
2022/08/08 12:37:25;;;;;;;1.92;0.90;;;;;;;;;;5032749;28;20075;-63
2022/08/08 12:39:51;;;;;;;1.35;1.00;;;;;;;;;;5032775;28;20073;-63
2022/08/08 12:42:17;;;;;;;3.03;1.20;;;;;;;;;;5032346;28;20048;-63
2022/08/08 12:44:44;;;;;;;2.20;1.17;;;;;;;;;;5039073;28;20494;-63
2022/08/08 12:47:11;;;;;;;2.25;1.00;;;;;;;;;;5041033;28;20090;-63
2022/08/08 12:49:37;;;;;;;1.65;0.80;;;;;;;;;;5026231;28;20043;-63
2022/08/08 12:52:04;;;;;;;1.77;0.80;;;;;;;;;;5052241;28;20041;-63
2022/08/08 12:54:31;;;;;;;2.40;0.80;;;;;;;;;;5034437;28;20099;-63
2022/08/08 12:56:58;;;;;;;1.73;0.80;;;;;;;;;;5052226;28;20045;-63
2022/08/08 12:59:25;;;;;;;4.28;0.95;;;;;;;;;;5043426;28;20469;-63
2022/08/08 13:01:54;;;;;;;2.28;0.90;;;;;;;;;;5036293;28;20053;-64
2022/08/08 13:04:23;;;;;;;1.10;0.80;;;;;;;;;;5034045;28;20103;-64
2022/08/08 13:07:00;;;;;;;2.78;1.00;;;;;;;;;;5032386;28;20077;-64
2022/08/08 13:09:32;;;;;;;3.35;0.90;;;;;;;;;;5031546;28;20037;-63
2022/08/08 13:11:58;;;;;;;1.20;0.77;;;;;;;;;;5030320;28;20045;-63
2022/08/08 13:14:53;;;;;;;3.92;1.13;;;;;;;;;;5037364;28;20041;-64
2022/08/08 13:17:26;;;;;;;1.30;0.82;;;;;;;;;;5018412;28;20553;-64
2022/08/08 13:19:55;;;;;;;3.72;0.90;;;;;;;;;;5031830;28;20418;-64
2022/08/08 13:22:22;;;;;;;1.25;0.80;;;;;;;;;;5032079;28;20068;-63
2022/08/08 13:24:48;;;;;;;5.95;0.98;;;;;;;;;;5031904;28;20049;-64
2022/08/08 13:27:17;;;;;;;6.55;1.02;;;;;;;;;;5035371;28;20088;-64
2022/08/08 13:30:03;;;;;;;16.80;1.30;;;;;;;;;;5026294;28;20399;-64
2022/08/08 13:32:34;;;;;;;3.47;0.90;;;;;;;;;;5051022;28;20037;-64
2022/08/08 13:35:00;;;;;;;1.20;0.80;;;;;;;;;;5033467;28;20403;-64
2022/08/08 13:37:26;;;;;;;1.52;0.57;;;;;;;;;;5042177;28;20052;-64
2022/08/08 13:39:54;;;;;;;2.10;0.70;;;;;;;;;;5043065;28;20071;-64
2022/08/08 13:42:20;;;;;;;1.83;0.95;;;;;;;;;;5030603;28;20033;-64
2022/08/08 13:44:47;;;;;;;2.15;0.90;;;;;;;;;;5038191;28;20045;-63
2022/08/08 13:47:16;;;;;;;4.45;1.00;;;;;;;;;;5036955;28;20045;-64
2022/08/08 13:49:42;;;;;;;2.03;0.90;;;;;;;;;;5051019;28;20037;-64
2022/08/08 13:52:10;;;;;;;2.85;1.13;;;;;;;;;;5040090;28;20044;-64
2022/08/08 13:54:40;;;;;;;2.40;1.00;;;;;;;;;;5011978;28;20038;-63
2022/08/08 13:57:08;;;;;;;2.10;1.03;;;;;;;;;;5028578;28;20640;-64
2022/08/08 13:59:36;;;;;;;2.58;1.10;;;;;;;;;;5039753;28;20090;-64
2022/08/08 14:02:03;;;;;;;3.28;1.05;;;;;;;;;;5044873;28;20041;-63
2022/08/08 14:04:32;;;;;;;2.53;1.23;;;;;;;;;;5055225;28;20048;-64
2022/08/08 14:06:59;;;;;;;2.75;0.82;;;;;;;;;;5042367;28;20041;-63
2022/08/08 14:09:32;;;;;;;2.08;1.00;;;;;;;;;;5045243;28;20082;-63
2022/08/08 14:11:58;;;;;;;4.65;1.20;;;;;;;;;;5055707;28;20044;-63
2022/08/08 14:14:36;;;;;;;3.33;0.90;;;;;;;;;;5044159;28;20154;-64
2022/08/08 14:17:03;;;;;;;2.40;1.10;;;;;;;;;;5050209;28;20129;-64
2022/08/08 14:19:30;;;;;;;2.47;1.00;;;;;;;;;;5048546;28;20056;-64
2022/08/08 14:21:57;;;;;;;2.92;0.90;;;;;;;;;;5029176;28;20036;-63
2022/08/08 14:24:33;;;;;;;3.05;0.90;;;;;;;;;;5055024;28;20044;-64
2022/08/08 14:26:59;;;;;;;2.97;1.00;;;;;;;;;;5037275;28;20192;-63
2022/08/08 14:29:26;;;;;;;1.42;0.95;;;;;;;;;;5023371;28;20500;-63
2022/08/08 14:31:52;;;;;;;1.77;1.10;;;;;;;;;;5004268;28;20052;-64
2022/08/08 14:34:18;;;;;;;2.67;1.10;;;;;;;;;;5020624;28;20120;-64
2022/08/08 14:36:48;;;;;;;2.35;1.10;;;;;;;;;;5033323;28;20164;-63
2022/08/08 14:39:18;;;;;;;1.00;0.88;;;;;;;;;;5027042;28;20045;-63
2022/08/08 14:41:45;;;;;;;2.78;1.10;;;;;;;;;;5030548;28;20491;-63
2022/08/08 14:44:12;;;;;;;1.33;0.80;;;;;;;;;;5037888;28;20041;-63
2022/08/08 14:46:38;;;;;;;2.50;1.00;;;;;;;;;;5034781;28;20041;-63
2022/08/08 14:49:11;;;;;;;3.00;1.20;;;;;;;;;;5025339;28;20044;-64
2022/08/08 14:51:39;;;;;;;2.38;1.02;;;;;;;;;;5025450;28;20038;-64
2022/08/08 14:54:05;;;;;;;1.58;1.00;;;;;;;;;;5009860;28;20097;-63
2022/08/08 14:56:34;;;;;;;1.60;1.30;;;;;;;;;;5029985;28;20112;-64
2022/08/08 14:59:00;;;;;;;2.50;0.80;;;;;;;;;;5028383;28;20045;-63
2022/08/08 15:01:27;;;;;;;2.00;1.10;;;;;;;;;;5027192;28;20088;-63
2022/08/08 15:03:53;;;;;;;3.17;0.80;;;;;;;;;;5010055;28;20500;-64
2022/08/08 15:06:19;;;;;;;3.53;1.15;;;;;;;;;;5036413;28;20033;-63
2022/08/08 15:11:15;;;;;;;3.65;1.15;;;;;;;;;;5031852;28;20120;-62
2022/08/08 15:13:41;;;;;;;2.20;1.05;;;;;;;;;;5025045;28;20045;-62